• Join FlightAware (Why Join?)
  • Login
  • US Flag 
12:10AM EDT


 

Airport Tracker/Info


-or-


 

Live Flight TrackerFlight Track Log ✈ N1803M ✈ 02-May-2013 ✈ KTYQ - KHAO

Flight Track Log - Related Links

Times and Time Zones

All times are in EDT time to prevent confusion due to time zone crossing. See the N1803M flight status page for this flight to view local times or setup timezone preferences in your user account.

Time Position Orientation Groundspeed Altitude Reporting Facility
EDT Latitude Longitude Course Direction KTS MPH feet Rate Location/Type
08:08PM 39.9833 -86.2000 90° East 74 85 2,600  Level Indianapolis TRACON
08:09PM 39.9833 -86.1833 90° East 73 84 3,000 420 Climbing Indianapolis TRACON
08:10PM 39.9667 -86.1500 123° Southeast 74 85 3,500 420 Climbing Indianapolis TRACON
08:11PM 39.9667 -86.1333 90° East 71 82 3,900 420 Climbing Indianapolis TRACON
08:12PM 39.9597 -86.1242 135° Southeast 72 83 4,100 420 Climbing Indianapolis Center
08:13PM 39.9506 -86.1008 117° Southeast 72 83 4,500 360 Climbing Indianapolis Center
08:14PM 39.9408 -86.0753 116° Southeast 75 86 4,900 240 Climbing Indianapolis Center
08:15PM 39.9294 -86.0461 117° Southeast 82 94 5,000  Climbing Indianapolis Center
08:16PM 39.9158 -86.0133 118° Southeast 93 107 4,900 -60 Descending Indianapolis Center
08:17PM 39.9025 -85.9800 118° Southeast 99 114 4,900  Level Indianapolis Center
08:18PM 39.8861 -85.9400 118° Southeast 102 117 5,000  Climbing Indianapolis Center
08:19PM 39.8728 -85.9053 117° Southeast 105 121 5,000  Level Indianapolis Center
08:20PM 39.8597 -85.8703 116° Southeast 107 123 5,000  Level Indianapolis Center
08:21PM 39.8483 -85.8339 112° Southeast 108 124 5,000  Level Indianapolis Center
08:22PM 39.8378 -85.7975 111° Southeast 108 124 5,000  Level Indianapolis Center
08:23PM 39.8269 -85.7614 111° Southeast 108 124 5,000  Level Indianapolis Center
08:24PM 39.8156 -85.7258 113° Southeast 107 123 5,000  Level Indianapolis Center
08:25PM 39.8053 -85.6883 110° East 108 124 5,000  Level Indianapolis Center
08:26PM 39.7908 -85.6461 114° Southeast 108 124 5,000  Level Indianapolis Center
08:27PM 39.7775 -85.6119 117° Southeast 107 123 5,000  Level Indianapolis Center
08:28PM 39.7650 -85.5769 115° Southeast 107 123 5,000  Level Indianapolis Center
08:29PM 39.7517 -85.5431 117° Southeast 106 122 5,000  Level Indianapolis Center
08:30PM 39.7397 -85.5083 114° Southeast 106 122 5,000  Level Indianapolis Center
08:31PM 39.7281 -85.4731 113° Southeast 107 123 5,000  Level Indianapolis Center
08:32PM 39.7161 -85.4375 114° Southeast 107 123 5,000  Level Indianapolis Center
08:33PM 39.7008 -85.3964 116° Southeast 106 122 5,000 60 Level Indianapolis Center
08:34PM 39.6939 -85.3789 117° Southeast 106 122 5,100  Climbing Indianapolis Center
08:34PM 39.6892 -85.3625 111° Southeast 105 121 5,000  Descending Indianapolis Center
08:35PM 39.6806 -85.3417 118° Southeast 103 119 5,100  Climbing Indianapolis Center
08:35PM 39.6761 -85.3292 115° Southeast 104 120 5,000 -180 Descending Indianapolis Center
08:36PM 39.6650 -85.2950 113° Southeast 104 120 4,900 -60 Descending Indianapolis Center
08:37PM 39.6519 -85.2608 116° Southeast 105 121 4,900 -120 Level Indianapolis Center
08:38PM 39.6383 -85.2275 118° Southeast 104 120 4,700 -300 Descending Indianapolis Center
08:39PM 39.6256 -85.1914 115° Southeast 109 125 4,300 -360 Descending Indianapolis Center
08:40PM 39.6106 -85.1478 114° Southeast 110 127 4,000 -180 Descending Indianapolis Center
08:41PM 39.5986 -85.1147 115° Southeast 107 123 4,000  Level Indianapolis Center
08:42PM 39.5867 -85.0822 115° Southeast 103 119 4,000  Level Indianapolis Center
08:43PM 39.5747 -85.0494 115° Southeast 102 117 4,000  Level Indianapolis Center
08:45PM 39.5608 -85.0169 119° Southeast 102 117 4,000  Level Indianapolis Center
08:46PM 39.5492 -84.9844 115° Southeast 101 116 4,000  Level Indianapolis Center
08:47PM 39.5369 -84.9514 116° Southeast 101 116 4,000 -180 Level Indianapolis Center
08:48PM 39.5244 -84.9186 116° Southeast 102 117 3,700 -300 Descending Indianapolis Center
08:49PM 39.5086 -84.8767 116° Southeast 108 124 3,400 -360 Descending Indianapolis Center
08:50PM 39.4956 -84.8397 115° Southeast 110 127 3,000 -240 Descending Indianapolis Center
08:51PM 39.4828 -84.8069 117° Southeast 110 127 3,000  Level Indianapolis Center
08:52PM 39.4647 -84.7653 119° Southeast 136 157 3,000  Level Indianapolis Center